Time;durP1;ratioP1;P1;durP2;ratioP2;P2;SDS_P1;SDS_P2;PMS_P1;PMS_P2;Temp;Humidity;BMP_temperature;BMP_pressure;BME280_temperature;BME280_humidity;BME280_pressure;Samples;Min_cycle;Max_cycle;Signal;HPM_P1;HPM_P2
2022/10/02 00:00:18;;;;;;;16.15;3.28;;;15.10;99.90;;;;;;5056759;28;20032;-71
2022/10/02 00:02:54;;;;;;;16.17;2.45;;;15.00;99.90;;;;;;5049733;28;20037;-71
2022/10/02 00:05:22;;;;;;;15.82;2.53;;;15.00;99.90;;;;;;5061578;28;20074;-71
2022/10/02 00:07:51;;;;;;;14.55;2.33;;;15.00;99.90;;;;;;5068690;28;20045;-71
2022/10/02 00:10:33;;;;;;;13.98;2.55;;;14.90;99.90;;;;;;5054008;28;20033;-71
2022/10/02 00:13:21;;;;;;;16.48;2.67;;;14.90;99.90;;;;;;5048577;28;20135;-71
2022/10/02 00:15:48;;;;;;;18.35;2.10;;;14.90;99.90;;;;;;5048063;28;20033;-71
2022/10/02 00:18:24;;;;;;;16.58;2.55;;;14.90;99.90;;;;;;5062177;28;20086;-71
2022/10/02 00:21:27;;;;;;;13.15;2.10;;;14.90;99.90;;;;;;5054831;28;20036;-71
2022/10/02 00:24:04;;;;;;;10.63;1.90;;;14.90;99.90;;;;;;5059097;28;20029;-71
2022/10/02 00:26:37;;;;;;;18.25;2.65;;;14.90;99.90;;;;;;5050475;28;20106;-71
2022/10/02 00:29:15;;;;;;;18.45;2.30;;;14.90;99.90;;;;;;5048335;28;20044;-71
2022/10/02 00:32:05;;;;;;;11.32;1.90;;;14.90;99.90;;;;;;5053841;28;20078;-71
2022/10/02 00:35:01;;;;;;;13.77;2.20;;;14.80;99.90;;;;;;5057047;28;20519;-71
2022/10/02 00:37:45;;;;;;;20.00;2.28;;;14.80;99.90;;;;;;5052174;28;20390;-71
2022/10/02 00:40:38;;;;;;;18.13;2.70;;;14.70;99.90;;;;;;5050010;28;20053;-71
2022/10/02 00:43:15;;;;;;;12.55;2.33;;;14.70;99.90;;;;;;5049580;28;20415;-71
2022/10/02 00:46:12;;;;;;;14.18;2.40;;;14.70;99.90;;;;;;5051382;28;20037;-71
2022/10/02 00:49:07;;;;;;;12.70;1.83;;;14.70;99.90;;;;;;5045285;28;20047;-71
2022/10/02 00:51:43;;;;;;;14.70;2.40;;;14.70;99.90;;;;;;5063248;28;20166;-70
2022/10/02 00:54:57;;;;;;;14.13;1.92;;;14.60;99.90;;;;;;5067113;28;20036;-71
2022/10/02 00:57:47;;;;;;;11.48;1.70;;;14.60;99.90;;;;;;5051556;28;20036;-71
2022/10/02 01:00:15;;;;;;;13.48;1.88;;;14.60;99.90;;;;;;5054438;28;20044;-71
2022/10/02 01:03:10;;;;;;;14.88;2.10;;;14.50;99.90;;;;;;5047198;28;20048;-70
2022/10/02 01:05:37;;;;;;;11.38;2.03;;;14.60;99.90;;;;;;5047586;28;20028;-70
2022/10/02 01:08:03;;;;;;;12.88;2.40;;;14.60;99.90;;;;;;5053346;28;20053;-71
2022/10/02 01:10:29;;;;;;;9.45;2.00;;;14.50;99.90;;;;;;5049528;28;20119;-71
2022/10/02 01:12:56;;;;;;;9.50;2.08;;;14.50;99.90;;;;;;5051161;28;20032;-71
2022/10/02 01:15:28;;;;;;;10.93;1.90;;;14.50;99.90;;;;;;5047605;28;20033;-71
2022/10/02 01:17:55;;;;;;;12.55;1.60;;;14.40;99.90;;;;;;5050991;28;20045;-71
2022/10/02 01:20:51;;;;;;;13.20;1.85;;;14.50;99.90;;;;;;5051279;28;20483;-70
2022/10/02 01:23:33;;;;;;;9.07;1.67;;;14.50;99.90;;;;;;5049850;28;20048;-71
2022/10/02 01:25:59;;;;;;;10.85;1.50;;;14.50;99.90;;;;;;5055246;28;20495;-71
2022/10/02 01:28:26;;;;;;;9.43;1.50;;;14.50;99.90;;;;;;5048827;28;20113;-71
2022/10/02 01:30:56;;;;;;;8.38;1.67;;;14.40;99.90;;;;;;5060411;28;20033;-71
2022/10/02 01:33:22;;;;;;;10.02;1.65;;;14.40;99.90;;;;;;5071848;28;20036;-71
2022/10/02 01:35:48;;;;;;;13.02;1.88;;;14.40;99.90;;;;;;5051960;28;20040;-71
2022/10/02 01:38:18;;;;;;;13.10;1.80;;;14.40;99.90;;;;;;5051712;28;20037;-71
2022/10/02 01:40:44;;;;;;;12.27;1.75;;;14.40;99.90;;;;;;5057879;28;20036;-71
2022/10/02 01:43:24;;;;;;;9.25;1.60;;;14.40;99.90;;;;;;5065133;28;20570;-71
2022/10/02 01:45:52;;;;;;;8.50;1.70;;;14.40;99.90;;;;;;5065989;28;20052;-70
2022/10/02 01:48:38;;;;;;;13.95;2.13;;;14.40;99.90;;;;;;5070246;28;20044;-71
2022/10/02 01:51:24;;;;;;;11.93;2.05;;;14.30;99.90;;;;;;5056848;28;20072;-70
2022/10/02 01:53:59;;;;;;;8.25;1.85;;;14.30;99.90;;;;;;5053708;28;20159;-71
2022/10/02 01:56:54;;;;;;;9.73;1.50;;;14.30;99.90;;;;;;5072240;28;20682;-70
2022/10/02 01:59:47;;;;;;;12.70;1.65;;;14.30;99.90;;;;;;5047009;28;20036;-71
2022/10/02 02:02:22;;;;;;;9.30;1.50;;;14.20;99.90;;;;;;5056970;28;20029;-71
2022/10/02 02:04:59;;;;;;;11.23;1.55;;;14.20;99.90;;;;;;5046549;28;20375;-70
2022/10/02 02:07:40;;;;;;;10.40;1.90;;;14.20;99.90;;;;;;5047875;28;20049;-70
2022/10/02 02:10:21;;;;;;;9.93;1.73;;;14.10;99.90;;;;;;5063020;28;20032;-70
2022/10/02 02:13:08;;;;;;;11.13;2.28;;;14.10;99.90;;;;;;5066380;28;20032;-70
2022/10/02 02:15:50;;;;;;;11.25;1.65;;;14.00;99.90;;;;;;5064682;28;20119;-71
2022/10/02 02:18:42;;;;;;;10.13;1.80;;;14.00;99.90;;;;;;5053690;28;20043;-71
2022/10/02 02:21:22;;;;;;;12.25;1.70;;;14.00;99.90;;;;;;5068763;28;20375;-70
2022/10/02 02:23:49;;;;;;;9.32;1.77;;;13.90;99.90;;;;;;5064770;28;20040;-70
2022/10/02 02:26:17;;;;;;;11.93;2.05;;;13.90;99.90;;;;;;5059220;28;20033;-70
2022/10/02 02:28:48;;;;;;;12.35;2.20;;;13.90;99.90;;;;;;5063368;28;20029;-70
2022/10/02 02:31:21;;;;;;;7.50;1.75;;;13.90;99.90;;;;;;5053472;28;20037;-71
2022/10/02 02:33:59;;;;;;;12.50;2.25;;;13.90;99.90;;;;;;5065358;28;20040;-71
2022/10/02 02:36:34;;;;;;;10.18;1.60;;;14.00;99.90;;;;;;5063842;28;20037;-70
2022/10/02 02:39:06;;;;;;;11.95;1.90;;;14.00;99.90;;;;;;5054923;28;20082;-70
2022/10/02 02:41:43;;;;;;;9.93;1.75;;;14.00;99.90;;;;;;5054747;28;20517;-71
2022/10/02 02:44:43;;;;;;;12.65;2.00;;;14.10;99.90;;;;;;5065213;28;20153;-71
2022/10/02 02:47:10;;;;;;;;;;;14.10;99.90;;;;;;5060310;28;20047;-70
2022/10/02 02:49:41;;;;;;;9.45;1.90;;;14.10;99.90;;;;;;5066458;28;20627;-71
2022/10/02 02:52:10;;;;;;;9.25;1.60;;;14.10;99.90;;;;;;5053539;28;20037;-71
2022/10/02 02:54:42;;;;;;;13.40;2.55;;;14.20;99.90;;;;;;5061771;28;20055;-71
2022/10/02 02:57:09;;;;;;;12.70;1.80;;;14.20;99.90;;;;;;5064187;28;20045;-71
2022/10/02 02:59:37;;;;;;;14.07;2.20;;;14.20;99.90;;;;;;5066300;28;20119;-71
2022/10/02 03:02:03;;;;;;;15.50;2.08;;;14.20;99.90;;;;;;5060196;28;20583;-71
2022/10/02 03:04:29;;;;;;;11.52;1.85;;;14.20;99.90;;;;;;5055527;28;20045;-71
2022/10/02 03:07:00;;;;;;;11.60;2.17;;;14.30;99.90;;;;;;5058066;28;20067;-71
2022/10/02 03:09:31;;;;;;;8.82;1.70;;;14.30;99.90;;;;;;5064744;28;20032;-72
2022/10/02 03:11:56;;;;;;;10.30;1.83;;;14.30;99.90;;;;;;5039047;28;20040;-71
2022/10/02 03:14:38;;;;;;;11.55;1.90;;;14.40;99.90;;;;;;5067019;28;20037;-71
2022/10/02 03:17:19;;;;;;;13.38;1.90;;;14.40;99.90;;;;;;5063942;28;20059;-71
2022/10/02 03:20:06;;;;;;;8.60;1.75;;;14.40;99.90;;;;;;5064694;28;20071;-71
2022/10/02 03:22:44;;;;;;;11.77;2.08;;;14.40;99.90;;;;;;5075475;28;20032;-71
2022/10/02 03:25:43;;;;;;;11.77;2.17;;;14.50;99.90;;;;;;5055963;28;20032;-71
2022/10/02 03:28:23;;;;;;;10.75;1.77;;;14.40;99.90;;;;;;5060483;28;20059;-72
2022/10/02 03:30:52;;;;;;;11.43;1.67;;;14.40;99.90;;;;;;5055291;28;20099;-71
2022/10/02 03:33:18;;;;;;;12.00;2.15;;;14.40;99.90;;;;;;5051738;28;20029;-71
2022/10/02 03:35:44;;;;;;;10.60;2.15;;;14.40;99.90;;;;;;5051244;28;20036;-71
2022/10/02 03:38:13;;;;;;;11.30;2.78;;;14.40;99.90;;;;;;5051575;28;20033;-71
2022/10/02 03:40:39;;;;;;;11.63;1.83;;;14.40;99.90;;;;;;5054076;28;20132;-71
2022/10/02 03:43:06;;;;;;;8.75;1.65;;;14.40;99.90;;;;;;5067008;28;20124;-71
2022/10/02 03:45:31;;;;;;;11.98;2.25;;;14.40;99.90;;;;;;5051509;28;20033;-71
2022/10/02 03:47:57;;;;;;;13.25;2.10;;;14.40;99.90;;;;;;5049068;28;20041;-71
2022/10/02 03:50:22;;;;;;;10.40;1.90;;;14.40;99.90;;;;;;5054326;28;20103;-71
2022/10/02 03:52:50;;;;;;;13.23;2.08;;;14.40;99.90;;;;;;5068240;28;20035;-71
2022/10/02 03:55:36;;;;;;;11.40;2.10;;;14.40;99.90;;;;;;5048898;28;20040;-70
2022/10/02 03:58:10;;;;;;;10.55;1.95;;;14.40;99.90;;;;;;5053022;28;20107;-71
2022/10/02 04:00:57;;;;;;;10.25;1.98;;;14.40;99.90;;;;;;5046653;28;20036;-71
2022/10/02 04:03:36;;;;;;;9.38;1.88;;;14.40;99.90;;;;;;5048848;28;20040;-71
2022/10/02 04:06:10;;;;;;;8.45;1.52;;;14.40;99.90;;;;;;5053105;28;20039;-71
2022/10/02 04:08:46;;;;;;;8.52;1.83;;;14.30;99.90;;;;;;5068819;28;20553;-71
2022/10/02 04:11:26;;;;;;;12.05;1.95;;;14.30;99.90;;;;;;5064091;28;20497;-71
2022/10/02 04:13:59;;;;;;;9.30;1.60;;;14.30;99.90;;;;;;5062019;28;20036;-71
2022/10/02 04:16:37;;;;;;;9.20;1.80;;;14.30;99.90;;;;;;5045139;28;20029;-71
2022/10/02 04:19:21;;;;;;;10.15;1.95;;;14.30;99.90;;;;;;5048279;28;20033;-71
2022/10/02 04:21:53;;;;;;;7.47;1.63;;;14.20;99.90;;;;;;5058268;28;21247;-70
2022/10/02 04:24:46;;;;;;;12.23;2.28;;;14.10;99.90;;;;;;5053023;28;20407;-71
2022/10/02 04:27:37;;;;;;;11.43;1.70;;;14.10;99.90;;;;;;5060904;28;20040;-71
2022/10/02 04:30:06;;;;;;;7.00;2.00;;;14.10;99.90;;;;;;5047042;28;20078;-71
2022/10/02 04:32:35;;;;;;;12.15;2.22;;;14.00;99.90;;;;;;5063545;28;20028;-71
2022/10/02 04:35:13;;;;;;;13.07;2.38;;;13.90;99.90;;;;;;5055699;28;20092;-71
2022/10/02 04:38:01;;;;;;;8.45;2.00;;;13.90;99.90;;;;;;5050864;28;20045;-71
2022/10/02 04:40:26;;;;;;;9.77;1.98;;;14.00;99.90;;;;;;5048039;28;20112;-71
2022/10/02 04:43:07;;;;;;;8.18;1.90;;;13.90;99.90;;;;;;5037890;28;20070;-71
2022/10/02 04:45:48;;;;;;;11.07;2.28;;;13.90;99.90;;;;;;5065158;28;20071;-72
2022/10/02 04:48:36;;;;;;;9.40;1.80;;;13.80;99.90;;;;;;5058749;28;20851;-72
2022/10/02 04:51:37;;;;;;;10.93;2.45;;;13.80;99.90;;;;;;5048284;28;20055;-71
2022/10/02 04:54:27;;;;;;;9.32;2.17;;;13.80;99.90;;;;;;5048503;28;20064;-71
2022/10/02 04:57:21;;;;;;;5.70;1.63;;;13.80;99.90;;;;;;5049470;28;20041;-71
2022/10/02 05:00:08;;;;;;;6.88;1.67;;;13.80;99.90;;;;;;5047441;28;20395;-71
2022/10/02 05:03:25;;;;;;;10.70;2.10;;;13.80;99.90;;;;;;5045657;28;20029;-71
2022/10/02 05:06:12;;;;;;;13.55;2.20;;;13.80;99.90;;;;;;5009928;28;20058;-71
2022/10/02 05:08:46;;;;;;;8.60;2.40;;;13.80;99.90;;;;;;5017160;28;20071;-71
2022/10/02 05:11:31;;;;;;;12.00;2.13;;;13.80;99.90;;;;;;5025314;28;20443;-71
2022/10/02 05:14:20;;;;;;;8.90;1.95;;;13.80;99.90;;;;;;5024027;28;20063;-70
2022/10/02 05:17:10;;;;;;;11.90;2.20;;;13.80;99.90;;;;;;5019544;28;20081;-71
2022/10/02 05:19:35;;;;;;;7.43;1.95;;;13.80;99.90;;;;;;5021068;28;20037;-71
2022/10/02 05:22:28;;;;;;;10.05;2.40;;;13.70;99.90;;;;;;5027350;28;20099;-71
2022/10/02 05:25:08;;;;;;;11.25;2.60;;;13.70;99.90;;;;;;5020556;28;20033;-71
2022/10/02 05:27:39;;;;;;;9.48;2.50;;;13.70;99.90;;;;;;5007662;28;20053;-71
2022/10/02 05:30:08;;;;;;;10.75;2.22;;;13.70;99.90;;;;;;5023653;28;20510;-71
2022/10/02 05:33:10;;;;;;;10.07;2.30;;;13.70;99.90;;;;;;5006613;28;20433;-71
2022/10/02 05:35:44;;;;;;;9.35;2.30;;;13.60;99.90;;;;;;5024037;28;20025;-71
2022/10/02 05:38:35;;;;;;;13.23;2.70;;;13.70;99.90;;;;;;5024265;28;20055;-71
2022/10/02 05:41:07;;;;;;;10.30;2.50;;;13.60;99.90;;;;;;5059824;28;20040;-71
2022/10/02 05:43:38;;;;;;;11.15;2.92;;;13.60;99.90;;;;;;5059163;28;20070;-71
2022/10/02 05:46:40;;;;;;;14.25;2.58;;;13.60;99.90;;;;;;5055700;28;20529;-71
2022/10/02 05:49:15;;;;;;;11.65;2.92;;;13.50;99.90;;;;;;5042482;28;20068;-71
2022/10/02 05:51:56;;;;;;;10.70;2.83;;;13.50;99.90;;;;;;5055114;28;20065;-71
2022/10/02 05:54:29;;;;;;;7.38;2.33;;;13.50;99.90;;;;;;5047836;28;20048;-71
2022/10/02 05:57:33;;;;;;;8.90;2.63;;;13.50;99.90;;;;;;5041023;28;20036;-71
2022/10/02 06:00:18;;;;;;;8.68;2.50;;;13.50;99.90;;;;;;5065436;28;20032;-71
2022/10/02 06:03:03;;;;;;;13.52;2.75;;;13.50;99.90;;;;;;5058659;28;20504;-71
2022/10/02 06:05:39;;;;;;;12.43;2.63;;;13.50;99.90;;;;;;5061550;28;20028;-71
2022/10/02 06:08:08;;;;;;;10.60;2.60;;;13.50;99.90;;;;;;5047595;28;20121;-71
2022/10/02 06:10:45;;;;;;;12.98;2.38;;;13.40;99.90;;;;;;5046967;28;20055;-71
2022/10/02 06:13:36;;;;;;;8.50;2.22;;;13.50;99.90;;;;;;5048867;28;20041;-71
2022/10/02 06:16:37;;;;;;;11.15;2.60;;;13.50;99.90;;;;;;5051354;28;20033;-71
2022/10/02 06:19:10;;;;;;;13.63;2.70;;;13.50;99.90;;;;;;5017384;28;20467;-71
2022/10/02 06:21:50;;;;;;;11.25;2.47;;;13.50;99.90;;;;;;5025815;28;20081;-71
2022/10/02 06:24:19;;;;;;;;;;;13.50;99.90;;;;;;5026514;28;20029;-71
2022/10/02 06:26:59;;;;;;;11.60;2.60;;;13.40;99.90;;;;;;5026022;28;20432;-71
2022/10/02 06:29:44;;;;;;;10.02;2.28;;;13.40;99.90;;;;;;5024959;28;20025;-71
2022/10/02 06:32:24;;;;;;;17.85;3.58;;;13.40;99.90;;;;;;5019939;28;20076;-71
2022/10/02 06:34:49;;;;;;;10.82;2.90;;;13.40;99.90;;;;;;5017032;28;20204;-71
2022/10/02 06:37:41;;;;;;;12.55;3.40;;;13.40;99.90;;;;;;5021178;28;20045;-71
2022/10/02 06:40:36;;;;;;;11.30;3.22;;;13.40;99.90;;;;;;4999761;28;20408;-71
2022/10/02 06:43:25;;;;;;;12.23;3.10;;;13.40;99.90;;;;;;5010366;28;20034;-71
2022/10/02 06:46:21;;;;;;;10.30;2.58;;;13.40;99.90;;;;;;4997871;28;20134;-71
2022/10/02 06:48:54;;;;;;;10.25;2.42;;;13.40;99.90;;;;;;5010607;28;20863;-71
2022/10/02 06:51:39;;;;;;;12.45;2.78;;;13.40;99.90;;;;;;5027151;28;20044;-71
2022/10/02 06:54:22;;;;;;;8.82;2.58;;;13.40;99.90;;;;;;5065605;28;20130;-71
2022/10/02 06:56:58;;;;;;;10.25;2.60;;;13.40;99.90;;;;;;5069721;28;20028;-71
2022/10/02 06:59:27;;;;;;;12.00;2.83;;;13.40;99.90;;;;;;5043834;28;20037;-71
2022/10/02 07:02:07;;;;;;;13.05;2.85;;;13.50;99.90;;;;;;5065692;28;20029;-71
2022/10/02 07:04:42;;;;;;;10.07;2.75;;;13.50;99.90;;;;;;5060748;28;20078;-71
2022/10/02 07:07:26;;;;;;;15.63;3.70;;;13.50;99.90;;;;;;5059017;28;20051;-72
2022/10/02 07:10:06;;;;;;;11.57;3.20;;;13.50;99.90;;;;;;5058440;28;20024;-71
2022/10/02 07:12:35;;;;;;;13.18;3.58;;;13.50;99.90;;;;;;5062498;28;20055;-71
2022/10/02 07:15:27;;;;;;;13.35;3.20;;;13.50;99.90;;;;;;5067612;28;20409;-71
2022/10/02 07:18:04;;;;;;;11.02;2.58;;;13.50;99.90;;;;;;5062522;28;20041;-72
2022/10/02 07:20:33;;;;;;;10.02;3.20;;;13.50;99.90;;;;;;5064501;28;20036;-72
2022/10/02 07:23:12;;;;;;;9.55;2.50;;;13.50;99.90;;;;;;5059335;28;20029;-71
2022/10/02 07:26:03;;;;;;;10.45;2.50;;;13.60;99.90;;;;;;5071524;28;20050;-72
2022/10/02 07:28:54;;;;;;;10.23;2.35;;;13.60;99.90;;;;;;5071629;28;20037;-71
2022/10/02 07:31:36;;;;;;;11.43;2.80;;;13.60;99.90;;;;;;5071956;28;20048;-72
2022/10/02 07:34:29;;;;;;;12.13;2.25;;;13.60;99.90;;;;;;5054176;28;20025;-72
2022/10/02 07:36:54;;;;;;;11.82;2.60;;;13.60;99.90;;;;;;5070444;28;20143;-71
2022/10/02 07:39:39;;;;;;;14.52;2.50;;;13.60;99.90;;;;;;5073471;28;20111;-71
2022/10/02 07:42:16;;;;;;;11.55;2.70;;;13.60;99.90;;;;;;5069864;28;20036;-72
2022/10/02 07:45:01;;;;;;;11.20;2.65;;;13.60;99.90;;;;;;5065517;28;20051;-72
2022/10/02 07:47:47;;;;;;;12.73;3.28;;;13.70;99.90;;;;;;5074172;28;20482;-71
2022/10/02 07:50:32;;;;;;;10.35;2.80;;;13.60;99.90;;;;;;5072587;28;20486;-71
2022/10/02 07:53:16;;;;;;;10.77;2.40;;;13.70;99.90;;;;;;5078220;28;20032;-72
2022/10/02 07:55:50;;;;;;;12.70;2.72;;;13.60;99.90;;;;;;5054711;28;20083;-71
2022/10/02 07:58:18;;;;;;;9.50;2.80;;;13.70;99.90;;;;;;5072074;28;20058;-72
2022/10/02 08:00:58;;;;;;;14.52;3.55;;;13.70;99.90;;;;;;5053661;28;20086;-71
2022/10/02 08:03:42;;;;;;;12.95;3.38;;;13.70;99.90;;;;;;5071404;28;20094;-71
2022/10/02 08:06:07;;;;;;;15.02;3.22;;;13.70;99.90;;;;;;5065888;28;20029;-71
2022/10/02 08:08:42;;;;;;;10.82;3.05;;;13.70;99.90;;;;;;5058396;28;20055;-71
2022/10/02 08:11:15;;;;;;;16.58;2.80;;;13.70;99.90;;;;;;5074926;28;20024;-71
2022/10/02 08:13:49;;;;;;;14.40;3.50;;;13.70;99.90;;;;;;5061567;28;20055;-72
2022/10/02 08:16:22;;;;;;;10.35;2.83;;;13.70;99.90;;;;;;5047939;28;20024;-71
2022/10/02 08:18:54;;;;;;;9.50;3.03;;;13.70;99.90;;;;;;5058367;28;20064;-72
2022/10/02 08:21:23;;;;;;;10.95;3.25;;;13.70;99.90;;;;;;5053335;28;20024;-72
2022/10/02 08:23:58;;;;;;;12.20;3.17;;;13.70;99.90;;;;;;5041951;28;20124;-71
2022/10/02 08:26:37;;;;;;;10.18;3.78;;;13.70;99.90;;;;;;5052400;28;20029;-71
2022/10/02 08:29:10;;;;;;;11.18;3.05;;;13.70;99.90;;;;;;5065663;28;20090;-72
2022/10/02 08:31:36;;;;;;;11.35;4.28;;;13.80;99.90;;;;;;5063571;28;20072;-71
2022/10/02 08:34:22;;;;;;;12.63;3.97;;;13.80;99.90;;;;;;5050898;28;20125;-72
2022/10/02 08:37:32;;;;;;;11.73;4.22;;;13.80;99.90;;;;;;5061177;28;20048;-72
2022/10/02 08:40:32;;;;;;;13.50;4.47;;;13.80;99.90;;;;;;5016075;28;20478;-72
2022/10/02 08:43:26;;;;;;;11.73;3.97;;;13.80;99.90;;;;;;5066880;28;20552;-72
2022/10/02 08:46:05;;;;;;;13.63;4.00;;;13.80;99.90;;;;;;5067550;28;20032;-72
2022/10/02 08:49:13;;;;;;;13.23;3.53;;;13.80;99.90;;;;;;5066735;28;20041;-72
2022/10/02 08:52:02;;;;;;;12.45;3.20;;;13.80;99.90;;;;;;5034695;28;20140;-72
2022/10/02 08:54:55;;;;;;;8.77;2.20;;;13.80;99.90;;;;;;4989035;28;20639;-72
2022/10/02 08:57:29;;;;;;;8.80;2.30;;;13.80;99.90;;;;;;4980282;28;20771;-73
2022/10/02 09:00:15;;;;;;;11.82;2.40;;;13.70;99.90;;;;;;4980452;28;20037;-73
2022/10/02 09:02:47;;;;;;;12.73;2.50;;;13.70;99.90;;;;;;4980032;28;20072;-72
2022/10/02 09:05:43;;;;;;;11.10;2.13;;;13.60;99.90;;;;;;4986796;28;20333;-72
2022/10/02 09:08:45;;;;;;;12.32;2.55;;;13.60;99.90;;;;;;4987837;28;20587;-71
2022/10/02 09:11:46;;;;;;;9.43;2.03;;;13.50;99.90;;;;;;4988925;28;20034;-72
2022/10/02 09:14:33;;;;;;;7.57;2.10;;;13.50;99.90;;;;;;4986236;28;20037;-73
2022/10/02 09:17:19;;;;;;;10.02;2.13;;;13.50;99.90;;;;;;4984322;28;20400;-72
2022/10/02 09:20:03;;;;;;;9.82;2.50;;;13.40;99.90;;;;;;4977606;28;20041;-73
2022/10/02 09:22:50;;;;;;;8.38;2.20;;;13.40;99.90;;;;;;4980049;28;20042;-71
2022/10/02 09:25:36;;;;;;;9.95;2.60;;;13.40;99.90;;;;;;4978523;28;20043;-74
2022/10/02 09:28:32;;;;;;;9.88;2.30;;;13.40;99.90;;;;;;4974248;28;20053;-73
2022/10/02 09:31:29;;;;;;;14.95;3.30;;;13.30;99.90;;;;;;4996230;28;20044;-73
2022/10/02 09:34:16;;;;;;;10.85;2.28;;;13.40;99.90;;;;;;5062481;28;20056;-74
2022/10/02 09:37:07;;;;;;;9.10;2.40;;;13.40;99.90;;;;;;5053238;28;20035;-71
2022/10/02 09:39:55;;;;;;;10.95;1.88;;;13.40;99.90;;;;;;5056686;28;20032;-73
2022/10/02 09:42:39;;;;;;;8.98;2.10;;;13.40;99.90;;;;;;5060745;28;20116;-73
2022/10/02 09:45:31;;;;;;;8.13;1.65;;;13.40;99.90;;;;;;5057172;28;20132;-73
2022/10/02 09:48:29;;;;;;;7.72;2.15;;;13.40;99.90;;;;;;5059275;28;20044;-74
2022/10/02 09:51:04;;;;;;;9.95;1.70;;;13.30;99.90;;;;;;5058822;28;20701;-73
2022/10/02 09:53:39;;;;;;;10.55;1.50;;;13.30;99.90;;;;;;5052042;28;20093;-74
2022/10/02 09:56:52;;;;;;;8.63;1.80;;;13.30;99.90;;;;;;5075764;28;20031;-75
2022/10/02 09:59:58;;;;;;;8.27;1.67;;;13.30;99.90;;;;;;5064939;28;20780;-74
2022/10/02 10:02:32;;;;;;;8.23;1.80;;;13.20;99.90;;;;;;5068194;28;20105;-71
2022/10/02 10:05:22;;;;;;;9.02;1.40;;;13.20;99.90;;;;;;5064099;28;20060;-72
2022/10/02 10:08:21;;;;;;;6.78;1.70;;;13.20;99.90;;;;;;5041815;28;20153;-74
2022/10/02 10:11:28;;;;;;;6.18;1.20;;;13.20;99.90;;;;;;5065111;28;20622;-73
2022/10/02 10:14:08;;;;;;;10.48;1.65;;;13.20;99.90;;;;;;5055738;28;20036;-72
2022/10/02 10:16:46;;;;;;;10.65;1.50;;;13.20;99.90;;;;;;5065906;28;20039;-73
2022/10/02 10:19:36;;;;;;;7.40;1.60;;;13.30;99.90;;;;;;5057354;28;20039;-73
2022/10/02 10:22:26;;;;;;;9.70;1.73;;;13.30;99.90;;;;;;5071970;28;20034;-73
2022/10/02 10:24:58;;;;;;;7.43;1.95;;;13.40;99.90;;;;;;5067462;28;20035;-73
2022/10/02 10:28:01;;;;;;;8.13;1.80;;;13.40;99.90;;;;;;5055693;28;20045;-73
2022/10/02 10:31:04;;;;;;;6.97;1.80;;;13.50;99.90;;;;;;5069840;28;20666;-73
2022/10/02 10:33:56;;;;;;;9.65;2.72;;;13.60;99.90;;;;;;5074318;28;20085;-71
2022/10/02 10:39:54;;;;;;;9.18;3.00;;;13.70;99.90;;;;;;5064367;28;20890;-72
2022/10/02 10:42:49;;;;;;;13.48;3.28;;;13.80;99.90;;;;;;5064314;28;20039;-71
2022/10/02 10:45:44;;;;;;;11.68;3.25;;;13.90;99.90;;;;;;5061732;28;20035;-71
2022/10/02 10:48:49;;;;;;;9.00;2.50;;;13.90;99.90;;;;;;5064628;28;20056;-70
2022/10/02 10:51:52;;;;;;;10.05;2.72;;;14.00;99.90;;;;;;5062751;28;20047;-70
2022/10/02 10:54:26;;;;;;;10.50;2.72;;;14.10;99.90;;;;;;5059932;28;20082;-72
2022/10/02 10:57:36;;;;;;;8.43;2.60;;;14.20;99.90;;;;;;5073099;28;20028;-71
2022/10/02 11:00:17;;;;;;;7.95;2.75;;;14.20;99.90;;;;;;5048497;28;20033;-71
2022/10/02 11:03:18;;;;;;;11.93;3.00;;;14.30;99.90;;;;;;5058533;28;20028;-72
2022/10/02 11:06:21;;;;;;;13.75;2.63;;;14.30;99.90;;;;;;4972749;28;20086;-71
2022/10/02 11:09:03;;;;;;;7.78;2.92;;;14.40;99.90;;;;;;4978535;28;20050;-72
2022/10/02 11:12:10;;;;;;;9.73;2.40;;;14.40;99.90;;;;;;4972630;28;20061;-71
2022/10/02 11:14:48;;;;;;;9.20;2.13;;;14.40;99.90;;;;;;4907583;29;20151;-71
2022/10/02 11:17:30;;;;;;;10.43;2.25;;;14.50;99.90;;;;;;4905427;29;20099;-72
2022/10/02 11:20:23;;;;;;;8.82;2.40;;;14.50;99.90;;;;;;4905343;29;20135;-72
2022/10/02 11:23:09;;;;;;;9.77;2.75;;;14.50;99.90;;;;;;4908486;29;20046;-71
2022/10/02 11:25:55;;;;;;;9.30;1.95;;;14.70;99.90;;;;;;4908669;29;20055;-73
2022/10/02 11:28:37;;;;;;;9.52;2.25;;;14.70;99.90;;;;;;4906368;29;20185;-72
2022/10/02 11:31:21;;;;;;;10.70;2.13;;;14.70;99.90;;;;;;4908187;29;20076;-72
2022/10/02 11:34:17;;;;;;;9.13;2.40;;;14.80;99.90;;;;;;4906826;29;20097;-71
2022/10/02 11:37:16;;;;;;;10.20;1.90;;;14.80;99.90;;;;;;4907396;29;20075;-71
2022/10/02 11:40:07;;;;;;;9.95;1.95;;;14.80;99.90;;;;;;4938382;28;20057;-72
2022/10/02 11:42:59;;;;;;;10.88;2.10;;;14.90;99.90;;;;;;4974193;28;20069;-72
2022/10/02 11:45:42;;;;;;;10.00;2.38;;;15.10;99.90;;;;;;4976042;28;20034;-71
2022/10/02 11:48:45;;;;;;;8.52;2.13;;;15.20;99.90;;;;;;4985438;28;20038;-70
2022/10/02 11:51:26;;;;;;;9.98;2.20;;;15.40;99.90;;;;;;5048821;28;20044;-71
2022/10/02 11:54:03;;;;;;;9.32;2.35;;;15.70;99.90;;;;;;5068822;28;20024;-72
2022/10/02 11:56:37;;;;;;;10.68;2.30;;;15.90;99.90;;;;;;5075058;28;20178;-74
2022/10/02 11:59:30;;;;;;;12.02;2.13;;;16.00;99.90;;;;;;5066756;28;20251;-72
2022/10/02 12:02:05;;;;;;;11.32;2.00;;;16.10;99.90;;;;;;5071642;28;20032;-72
2022/10/02 12:04:44;;;;;;;8.93;2.50;;;16.20;99.90;;;;;;5053805;28;20558;-71
2022/10/02 12:07:28;;;;;;;7.45;1.75;;;16.30;99.90;;;;;;5057587;28;20049;-71
2022/10/02 12:10:32;;;;;;;7.85;2.53;;;16.30;99.90;;;;;;5059233;28;20033;-72
2022/10/02 12:13:02;;;;;;;11.35;2.20;;;16.30;99.90;;;;;;5050989;28;20461;-71
2022/10/02 12:15:43;;;;;;;9.65;2.10;;;16.70;99.90;;;;;;5062542;28;20036;-72
2022/10/02 12:18:42;;;;;;;10.18;2.67;;;16.90;99.90;;;;;;5064441;28;20124;-71
2022/10/02 12:27:21;;;;;;;9.63;2.00;;;19.40;99.90;;;;;;5075376;28;19962;-72
2022/10/02 12:30:00;;;;;;;8.70;1.80;;;18.70;99.90;;;;;;5069667;28;20037;-72
2022/10/02 12:32:42;;;;;;;9.05;1.80;;;18.30;99.90;;;;;;5046790;28;20557;-73
2022/10/02 12:35:36;;;;;;;8.32;2.33;;;17.90;99.90;;;;;;5073314;28;20067;-72
2022/10/02 12:38:20;;;;;;;9.82;1.60;;;17.70;99.90;;;;;;5065471;28;20455;-74
2022/10/02 12:41:12;;;;;;;9.80;1.95;;;17.60;99.90;;;;;;5055013;28;20028;-72
2022/10/02 12:44:04;;;;;;;9.57;1.63;;;17.60;99.90;;;;;;5065492;28;20032;-71
2022/10/02 12:47:05;;;;;;;10.30;1.95;;;17.40;99.90;;;;;;5055205;28;20087;-71
2022/10/02 12:49:44;;;;;;;7.32;2.00;;;17.30;99.90;;;;;;5064103;28;20592;-72
2022/10/02 12:52:31;;;;;;;13.63;2.08;;;17.50;99.90;;;;;;5062563;28;20040;-72
2022/10/02 12:55:10;;;;;;;8.52;2.30;;;18.00;99.90;;;;;;5053070;28;20037;-74
2022/10/02 12:57:50;;;;;;;5.22;1.38;;;18.10;99.90;;;;;;5047279;28;20033;-72
2022/10/02 13:00:37;;;;;;;9.10;2.25;;;18.00;99.90;;;;;;5055752;28;20508;-70
2022/10/02 13:03:50;;;;;;;8.48;2.00;;;17.90;99.90;;;;;;5057976;28;20065;-71
2022/10/02 13:06:45;;;;;;;9.82;2.33;;;17.70;99.90;;;;;;4997759;28;20054;-72
2022/10/02 13:09:39;;;;;;;9.73;2.00;;;17.70;99.90;;;;;;4992066;28;20046;-71
2022/10/02 13:12:23;;;;;;;9.32;2.15;;;17.80;99.90;;;;;;4999680;28;20201;-71
2022/10/02 13:15:16;;;;;;;13.52;1.83;;;17.70;99.90;;;;;;4996054;28;20488;-71
2022/10/02 13:17:49;;;;;;;10.57;1.90;;;17.60;99.90;;;;;;5014096;28;20056;-72
2022/10/02 13:20:42;;;;;;;11.00;1.98;;;17.40;99.90;;;;;;5003450;28;20041;-72
2022/10/02 13:23:20;;;;;;;8.60;2.08;;;17.30;99.90;;;;;;5007849;28;20259;-70
2022/10/02 13:26:10;;;;;;;6.55;1.58;;;17.20;99.90;;;;;;5021620;28;20114;-71
2022/10/02 13:28:41;;;;;;;7.25;1.40;;;17.10;99.90;;;;;;5008966;28;20065;-71
2022/10/02 13:31:10;;;;;;;7.45;1.50;;;16.80;99.90;;;;;;5006606;28;20046;-72
2022/10/02 13:33:56;;;;;;;12.87;1.80;;;16.70;99.90;;;;;;5007764;28;20088;-72
2022/10/02 13:36:47;;;;;;;6.45;1.40;;;16.50;99.90;;;;;;5013783;28;20040;-71
2022/10/02 13:39:24;;;;;;;7.93;1.50;;;16.40;99.90;;;;;;5054703;28;20094;-71
2022/10/02 13:42:05;;;;;;;9.25;1.60;;;16.40;99.90;;;;;;5060772;28;20029;-72
2022/10/02 13:45:10;;;;;;;7.97;1.73;;;16.60;99.90;;;;;;5071332;28;20383;-71
2022/10/02 13:47:59;;;;;;;7.20;1.60;;;17.10;99.90;;;;;;5074038;28;20051;-70
2022/10/02 13:50:36;;;;;;;;;;;17.50;99.90;;;;;;5070689;28;20044;-71
2022/10/02 13:53:14;;;;;;;6.13;1.40;;;17.70;99.90;;;;;;5065997;28;19920;-71
2022/10/02 13:56:07;;;;;;;6.43;1.73;;;17.80;99.90;;;;;;5059225;28;20081;-71
2022/10/02 13:58:35;;;;;;;6.75;1.60;;;17.90;99.90;;;;;;5067551;28;20119;-72
2022/10/02 14:01:10;;;;;;;9.00;1.83;;;17.60;99.90;;;;;;5070383;28;20036;-71
2022/10/02 14:03:48;;;;;;;4.70;1.25;;;17.50;99.90;;;;;;5071000;28;20043;-71
2022/10/02 14:06:22;;;;;;;9.93;1.63;;;17.70;99.90;;;;;;5067997;28;20031;-71